Time;durP1;ratioP1;P1;durP2;ratioP2;P2;SDS_P1;SDS_P2;PMS_P1;PMS_P2;Temp;Humidity;BMP_temperature;BMP_pressure;BME280_temperature;BME280_humidity;BME280_pressure;Samples;Min_cycle;Max_cycle;Signal;HPM_P1;HPM_P2
2023/07/15 00:01:14;;;;;;;5.37;3.40;;;;;;;24.82;45.29;96959.88;5005520;28;20455;-69
2023/07/15 00:03:40;;;;;;;4.90;3.73;;;;;;;24.84;45.61;96961.25;5001796;28;20263;-69
2023/07/15 00:06:08;;;;;;;9.83;3.40;;;;;;;24.83;45.50;96959.63;5005519;28;20428;-69
2023/07/15 00:08:33;;;;;;;3.57;3.00;;;;;;;24.77;45.53;96955.25;5007667;28;20191;-69
2023/07/15 00:10:59;;;;;;;4.43;3.40;;;;;;;24.75;45.92;96964.59;5009404;28;20511;-69
2023/07/15 00:13:24;;;;;;;4.63;3.40;;;;;;;24.73;45.58;96969.41;5007565;28;20176;-69
2023/07/15 00:15:53;;;;;;;4.20;3.30;;;;;;;24.76;45.58;96971.59;5007025;28;20645;-70
2023/07/15 00:18:19;;;;;;;4.53;3.50;;;;;;;24.74;45.86;96965.66;5006724;28;21534;-69
2023/07/15 00:20:45;;;;;;;3.80;2.93;;;;;;;24.73;45.79;96961.38;5014979;28;20467;-69
2023/07/15 00:23:21;;;;;;;3.83;2.73;;;;;;;24.80;44.81;96962.00;5008925;28;20785;-68
2023/07/15 00:25:47;;;;;;;3.63;3.20;;;;;;;24.80;45.03;96953.97;5009865;28;20196;-68
2023/07/15 00:28:12;;;;;;;5.30;2.93;;;;;;;24.75;45.10;96957.41;5016249;28;20927;-68
2023/07/15 00:30:38;;;;;;;4.37;2.83;;;;;;;24.76;44.94;96966.22;5010801;28;20449;-68
2023/07/15 00:33:03;;;;;;;4.17;3.47;;;;;;;24.71;45.26;96966.16;5008982;28;20665;-69
2023/07/15 00:35:29;;;;;;;3.93;3.30;;;;;;;24.72;45.23;96967.78;5018138;28;20672;-69
2023/07/15 00:37:56;;;;;;;3.93;3.27;;;;;;;24.71;45.33;96963.47;5011062;28;20271;-68
2023/07/15 00:40:22;;;;;;;5.93;3.80;;;;;;;24.73;45.47;96967.56;5010017;28;20219;-68
2023/07/15 00:43:10;;;;;;;3.97;3.30;;;;;;;24.69;45.31;96971.78;5009251;28;20450;-68
2023/07/15 00:45:35;;;;;;;4.40;3.07;;;;;;;24.71;44.75;96966.16;5008479;28;20192;-69
2023/07/15 00:48:12;;;;;;;3.73;2.73;;;;;;;24.80;44.55;96964.69;5018310;28;20846;-69
2023/07/15 00:50:42;;;;;;;5.50;3.40;;;;;;;24.87;44.40;96965.28;5017474;28;20200;-69
2023/07/15 00:53:11;;;;;;;6.00;2.60;;;;;;;24.96;44.13;96966.47;4995832;28;20518;-68
2023/07/15 00:55:37;;;;;;;2.50;2.30;;;;;;;25.03;44.18;96974.31;5013124;28;20550;-69
2023/07/15 00:58:03;;;;;;;3.37;2.87;;;;;;;25.13;44.04;96976.28;4993058;28;20419;-68
2023/07/15 01:00:30;;;;;;;5.33;2.80;;;;;;;25.16;43.93;96975.78;5018107;28;20231;-68
2023/07/15 01:02:55;;;;;;;3.20;2.90;;;;;;;25.23;43.90;96976.41;5009144;28;20199;-69
2023/07/15 01:05:21;;;;;;;2.87;2.50;;;;;;;25.28;43.44;96971.09;5010033;28;20443;-70
2023/07/15 01:07:46;;;;;;;4.53;2.80;;;;;;;25.33;43.51;96975.69;5010081;28;20331;-69
2023/07/15 01:10:12;;;;;;;3.40;2.80;;;;;;;25.37;43.34;96968.78;5014121;28;20228;-69
2023/07/15 01:12:37;;;;;;;3.30;2.57;;;;;;;25.41;43.23;96966.41;5012132;28;20199;-69
2023/07/15 01:15:03;;;;;;;3.20;2.60;;;;;;;25.42;43.30;96957.31;5012045;28;20548;-69
2023/07/15 01:17:29;;;;;;;3.10;2.37;;;;;;;25.44;43.29;96955.19;5011377;28;20212;-70
2023/07/15 01:19:54;;;;;;;4.27;3.00;;;;;;;25.45;43.08;96964.84;5009766;28;20234;-69
2023/07/15 01:22:21;;;;;;;3.77;3.27;;;;;;;25.48;43.26;96956.28;5009190;28;20188;-70
2023/07/15 01:24:46;;;;;;;2.87;2.57;;;;;;;25.47;42.78;96959.22;5011617;28;20195;-69
2023/07/15 01:27:12;;;;;;;4.23;2.63;;;;;;;25.45;42.98;96960.28;5009881;28;20431;-69
2023/07/15 01:29:37;;;;;;;4.10;3.00;;;;;;;25.50;42.86;96969.44;5010771;28;20218;-69
2023/07/15 01:32:03;;;;;;;4.53;3.03;;;;;;;25.51;43.00;96963.81;5016564;28;20207;-68
2023/07/15 01:34:30;;;;;;;3.73;3.00;;;;;;;25.50;43.00;96959.53;5009719;28;20531;-70
2023/07/15 01:36:57;;;;;;;4.10;2.73;;;;;;;25.52;42.83;96968.13;5010311;28;20188;-68
2023/07/15 01:39:22;;;;;;;4.53;3.00;;;;;;;25.52;42.64;96964.66;5009114;28;20430;-68
2023/07/15 01:41:47;;;;;;;4.90;3.10;;;;;;;25.51;42.78;96960.34;5014043;28;20464;-69
2023/07/15 01:44:14;;;;;;;3.20;2.80;;;;;;;25.51;42.77;96958.47;5009064;28;20212;-69
2023/07/15 01:46:40;;;;;;;3.17;2.70;;;;;;;25.52;43.00;96962.75;5010241;28;20196;-68
2023/07/15 01:49:07;;;;;;;4.13;2.97;;;;;;;25.55;42.66;96956.06;5013424;28;20486;-69
2023/07/15 01:51:33;;;;;;;3.97;3.33;;;;;;;25.54;43.40;96959.81;5008935;28;20203;-69
2023/07/15 01:53:59;;;;;;;5.43;2.80;;;;;;;25.53;43.07;96959.03;5014602;28;20509;-69
2023/07/15 01:56:24;;;;;;;3.83;2.70;;;;;;;25.51;43.34;96961.13;5008698;28;20427;-69
2023/07/15 01:58:50;;;;;;;3.23;2.50;;;;;;;25.43;43.78;96953.56;5015179;28;20286;-69
2023/07/15 02:01:15;;;;;;;4.17;3.00;;;;;;;25.38;44.43;96956.16;5008733;28;20267;-69
2023/07/15 02:03:41;;;;;;;3.87;2.90;;;;;;;25.35;44.13;96960.16;5013553;28;20186;-69
2023/07/15 02:06:06;;;;;;;3.40;2.90;;;;;;;25.28;44.35;96959.53;5011091;28;20330;-69
2023/07/15 02:08:32;;;;;;;5.50;3.20;;;;;;;25.21;44.42;96956.28;5008072;28;20227;-69
2023/07/15 02:10:58;;;;;;;3.77;3.03;;;;;;;25.18;44.42;96952.22;5009337;28;20204;-69
2023/07/15 02:13:23;;;;;;;3.33;2.90;;;;;;;25.14;44.72;96945.75;5014192;28;20188;-69
2023/07/15 02:15:49;;;;;;;3.97;3.53;;;;;;;25.08;44.75;96952.94;5010836;28;20443;-69
2023/07/15 02:18:15;;;;;;;3.33;3.03;;;;;;;25.01;44.98;96949.66;5012431;28;20315;-69
2023/07/15 02:20:40;;;;;;;4.17;3.23;;;;;;;24.99;45.01;96941.84;5009467;28;20212;-69
2023/07/15 02:23:08;;;;;;;3.10;2.87;;;;;;;24.94;45.29;96939.13;5008221;28;20986;-69
2023/07/15 02:25:34;;;;;;;3.33;2.90;;;;;;;24.93;45.19;96945.53;5009040;28;20206;-70
2023/07/15 02:28:00;;;;;;;8.00;3.00;;;;;;;24.88;45.43;96937.44;5008913;28;20514;-69
2023/07/15 02:30:26;;;;;;;5.03;3.07;;;;;;;24.88;45.57;96936.63;5012622;28;20197;-69
2023/07/15 02:32:51;;;;;;;3.30;3.00;;;;;;;24.80;45.54;96936.00;5007425;28;20188;-69
2023/07/15 02:35:16;;;;;;;2.97;2.77;;;;;;;24.76;45.64;96931.41;5005137;28;20431;-69
2023/07/15 02:37:48;;;;;;;3.77;3.33;;;;;;;24.74;46.20;96928.97;5008116;28;20279;-69
2023/07/15 02:40:14;;;;;;;8.10;3.10;;;;;;;24.73;45.89;96930.03;4989926;28;20201;-70
2023/07/15 02:42:40;;;;;;;3.00;2.70;;;;;;;24.73;46.77;96929.22;5014971;28;20476;-68
2023/07/15 02:45:11;;;;;;;6.10;2.77;;;;;;;24.71;46.13;96926.78;5007971;28;20267;-68
2023/07/15 02:47:39;;;;;;;6.90;3.40;;;;;;;24.65;46.36;96931.25;5007550;28;20415;-69
2023/07/15 02:50:06;;;;;;;3.80;3.50;;;;;;;24.59;46.82;96921.53;5008267;28;20420;-69
2023/07/15 02:52:32;;;;;;;3.60;3.30;;;;;;;24.55;46.78;96925.78;4992004;28;20451;-68
2023/07/15 02:55:00;;;;;;;3.20;2.90;;;;;;;24.49;46.89;96934.78;5010703;28;20781;-69
2023/07/15 02:57:26;;;;;;;3.70;3.40;;;;;;;24.43;47.03;96928.56;4989060;28;20511;-69
2023/07/15 02:59:52;;;;;;;3.47;3.17;;;;;;;24.40;47.28;96929.06;4993309;28;20463;-68
2023/07/15 03:02:18;;;;;;;4.47;3.07;;;;;;;24.37;46.98;96929.56;5008044;28;20495;-68
2023/07/15 03:04:44;;;;;;;3.50;3.20;;;;;;;24.33;47.07;96931.91;5007022;28;20187;-69
2023/07/15 03:07:12;;;;;;;2.90;2.70;;;;;;;24.27;47.62;96927.56;5007553;28;20432;-68
2023/07/15 03:09:38;;;;;;;7.20;3.20;;;;;;;24.32;47.62;96932.19;5002709;28;20231;-69
2023/07/15 03:12:09;;;;;;;4.83;3.30;;;;;;;24.31;47.21;96936.72;5009170;28;20951;-69
2023/07/15 03:14:35;;;;;;;5.13;2.60;;;;;;;24.30;47.37;96929.75;4995690;28;20246;-69
2023/07/15 03:17:01;;;;;;;5.40;3.53;;;;;;;24.30;47.83;96928.94;5004557;28;20427;-69
2023/07/15 03:19:27;;;;;;;3.03;2.73;;;;;;;24.29;47.92;96935.34;5008057;28;20783;-68
2023/07/15 03:21:52;;;;;;;5.93;3.37;;;;;;;24.21;47.65;96933.91;5008406;28;20455;-69
2023/07/15 03:24:18;;;;;;;3.33;3.03;;;;;;;24.18;47.84;96934.41;5012151;28;20259;-68
2023/07/15 03:26:44;;;;;;;5.40;3.27;;;;;;;24.17;47.87;96938.94;5007707;28;20287;-69
2023/07/15 03:29:10;;;;;;;3.17;2.90;;;;;;;24.18;48.00;96929.84;5008190;28;20184;-68
2023/07/15 03:31:35;;;;;;;4.10;3.17;;;;;;;24.20;47.74;96929.59;5008484;28;20450;-68
2023/07/15 03:34:01;;;;;;;3.27;2.97;;;;;;;24.19;47.97;96936.81;5007985;28;20184;-70
2023/07/15 03:36:27;;;;;;;6.50;3.23;;;;;;;24.13;47.84;96937.81;5012439;28;20188;-69
2023/07/15 03:38:52;;;;;;;4.07;3.40;;;;;;;24.10;48.27;96929.47;5007317;28;20419;-69
2023/07/15 03:41:18;;;;;;;3.10;2.90;;;;;;;24.06;48.28;96927.28;5013023;28;20204;-70
2023/07/15 03:43:43;;;;;;;3.80;3.10;;;;;;;24.04;48.39;96931.25;5007676;28;20188;-69
2023/07/15 03:46:09;;;;;;;5.83;3.43;;;;;;;24.00;48.65;96933.63;5009071;28;20186;-69
2023/07/15 03:48:34;;;;;;;4.30;2.97;;;;;;;24.01;48.42;96935.25;5006909;28;20191;-69
2023/07/15 03:51:00;;;;;;;4.53;3.37;;;;;;;23.97;48.36;96934.09;5007835;28;20215;-70
2023/07/15 03:53:25;;;;;;;3.00;2.70;;;;;;;24.03;48.47;96940.34;5006268;28;20204;-69
2023/07/15 03:55:51;;;;;;;4.57;2.80;;;;;;;24.10;48.42;96934.81;5011567;28;20215;-69
2023/07/15 03:58:16;;;;;;;3.93;2.90;;;;;;;24.10;48.19;96932.97;5011508;28;20190;-69
2023/07/15 04:00:41;;;;;;;4.97;3.67;;;;;;;24.10;48.30;96927.59;5009800;28;20308;-68
2023/07/15 04:03:07;;;;;;;3.27;2.97;;;;;;;24.15;48.18;96918.84;5009959;28;20220;-69
2023/07/15 04:05:33;;;;;;;3.20;2.90;;;;;;;24.17;47.89;96922.88;5011081;28;20271;-69
2023/07/15 04:07:58;;;;;;;3.43;2.90;;;;;;;24.21;48.03;96929.38;5010993;28;20633;-68
2023/07/15 04:10:24;;;;;;;7.63;3.10;;;;;;;24.28;47.99;96929.19;5013677;28;20191;-68
2023/07/15 04:12:49;;;;;;;5.40;3.13;;;;;;;24.33;47.79;96931.91;5008847;28;20191;-69
2023/07/15 04:15:15;;;;;;;3.30;2.90;;;;;;;24.32;48.04;96932.19;5020042;28;20215;-69
2023/07/15 04:17:40;;;;;;;10.53;3.10;;;;;;;24.33;48.01;96929.25;5012975;28;20593;-69
2023/07/15 04:20:11;;;;;;;3.23;2.73;;;;;;;24.33;47.68;96915.84;5011331;28;20267;-70
2023/07/15 04:22:37;;;;;;;7.53;3.50;;;;;;;24.38;47.84;96926.63;5013098;28;20216;-69
2023/07/15 04:25:03;;;;;;;4.27;3.33;;;;;;;24.31;47.67;96914.50;5010552;28;21043;-70
2023/07/15 04:27:28;;;;;;;4.77;2.80;;;;;;;24.37;47.13;96919.66;5009954;28;20184;-69
2023/07/15 04:29:54;;;;;;;5.40;3.27;;;;;;;24.40;47.24;96913.00;5011271;28;20453;-70
2023/07/15 04:32:19;;;;;;;3.80;3.33;;;;;;;24.36;47.34;96911.88;5011977;28;20322;-70
2023/07/15 04:34:50;;;;;;;6.33;3.47;;;;;;;24.26;47.53;96907.19;4976466;28;20649;-69
2023/07/15 04:37:17;;;;;;;3.93;3.50;;;;;;;24.29;47.36;96917.44;4978762;28;20183;-71
2023/07/15 04:39:42;;;;;;;3.90;3.10;;;;;;;24.37;47.22;96918.88;5009774;28;20478;-70
2023/07/15 04:42:08;;;;;;;4.30;3.53;;;;;;;24.39;47.20;96909.53;5013505;28;20462;-69
2023/07/15 04:44:33;;;;;;;7.70;2.80;;;;;;;24.26;47.12;96909.88;5013169;28;20219;-69
2023/07/15 04:46:58;;;;;;;6.70;2.93;;;;;;;24.43;46.52;96920.53;5012296;28;20188;-69
2023/07/15 04:49:24;;;;;;;3.90;3.20;;;;;;;24.48;46.76;96912.56;5014621;28;20184;-69
2023/07/15 04:51:50;;;;;;;3.37;2.87;;;;;;;24.51;46.68;96913.94;5010958;28;20738;-69
2023/07/15 04:54:15;;;;;;;3.17;2.87;;;;;;;24.60;46.50;96914.31;5007768;28;20226;-68
2023/07/15 04:56:41;;;;;;;3.50;3.10;;;;;;;24.65;46.42;96915.19;5008812;28;20196;-69
2023/07/15 04:59:07;;;;;;;6.47;2.97;;;;;;;24.72;46.22;96917.69;5006644;28;20276;-69
2023/07/15 05:01:33;;;;;;;5.50;3.50;;;;;;;24.75;45.78;96924.41;5007127;28;20990;-68
2023/07/15 05:03:59;;;;;;;8.80;3.10;;;;;;;24.75;46.11;96927.94;5011059;28;20451;-68
2023/07/15 05:06:25;;;;;;;3.23;2.93;;;;;;;24.81;45.57;96928.78;5010181;28;20180;-68
2023/07/15 05:08:51;;;;;;;5.30;3.13;;;;;;;24.89;45.26;96930.22;5007579;28;20438;-69
2023/07/15 05:11:17;;;;;;;3.50;2.97;;;;;;;24.96;45.31;96938.84;5009971;28;20200;-69
2023/07/15 05:13:43;;;;;;;3.73;3.40;;;;;;;25.02;45.14;96931.69;5003662;28;20463;-69
2023/07/15 05:16:09;;;;;;;4.10;3.00;;;;;;;25.10;45.23;96944.63;5009703;28;20552;-69
2023/07/15 05:18:35;;;;;;;2.77;2.50;;;;;;;25.14;44.52;96935.81;4993685;28;20190;-69
2023/07/15 05:21:01;;;;;;;5.53;3.00;;;;;;;25.24;44.83;96939.69;5008929;28;20880;-68
2023/07/15 05:23:31;;;;;;;4.50;2.90;;;;;;;25.31;44.23;96942.97;5009426;28;20231;-69
2023/07/15 05:25:58;;;;;;;4.30;2.90;;;;;;;25.39;44.23;96936.31;5009209;28;20433;-68
2023/07/15 05:28:26;;;;;;;3.90;2.70;;;;;;;25.42;44.13;96946.59;5007991;28;20802;-69
2023/07/15 05:30:51;;;;;;;3.00;2.70;;;;;;;25.53;43.93;96942.91;5016879;28;20782;-70
2023/07/15 05:33:17;;;;;;;2.80;2.40;;;;;;;25.61;43.43;96939.75;5010382;28;20458;-70
2023/07/15 05:35:42;;;;;;;4.13;2.90;;;;;;;25.71;43.44;96948.94;5009858;28;20392;-70
2023/07/15 05:38:08;;;;;;;4.80;2.90;;;;;;;25.83;43.14;96946.91;5009961;28;20275;-71
2023/07/15 05:40:33;;;;;;;3.67;2.60;;;;;;;25.95;43.20;96944.03;5010457;28;20223;-69
2023/07/15 05:42:59;;;;;;;4.00;2.80;;;;;;;26.05;43.16;96948.66;5008508;28;20204;-69
2023/07/15 05:45:25;;;;;;;7.80;2.80;;;;;;;26.18;43.10;96942.06;5012464;28;20188;-70
2023/07/15 05:47:50;;;;;;;3.23;2.60;;;;;;;26.29;43.06;96949.09;5009842;28;20839;-69
2023/07/15 05:50:16;;;;;;;3.63;3.07;;;;;;;26.44;42.94;96947.56;5015510;28;20211;-69
2023/07/15 05:52:41;;;;;;;7.37;2.83;;;;;;;26.56;42.40;96939.31;5009472;28;20202;-69
2023/07/15 05:55:07;;;;;;;4.10;3.03;;;;;;;26.71;42.30;96944.75;5004458;28;20192;-69
2023/07/15 05:57:33;;;;;;;5.87;2.90;;;;;;;26.79;41.49;96933.50;5012070;28;20844;-67
2023/07/15 05:59:58;;;;;;;2.70;2.50;;;;;;;26.96;41.58;96922.53;5012195;28;20176;-68
2023/07/15 06:02:25;;;;;;;3.37;2.40;;;;;;;27.06;41.23;96919.06;5009460;28;20212;-69
2023/07/15 06:04:51;;;;;;;5.13;2.90;;;;;;;27.16;40.83;96918.25;5009565;28;20756;-70
2023/07/15 06:07:16;;;;;;;9.47;2.50;;;;;;;27.33;40.54;96917.19;5010685;28;20538;-70
2023/07/15 06:09:42;;;;;;;3.60;2.50;;;;;;;27.41;39.78;96913.97;5010616;28;20192;-69
2023/07/15 06:12:07;;;;;;;2.63;2.43;;;;;;;27.57;39.26;96912.16;5011161;28;20200;-70
2023/07/15 06:14:33;;;;;;;2.27;2.17;;;;;;;27.73;39.43;96912.94;5009599;28;20657;-70
2023/07/15 06:16:58;;;;;;;3.57;2.80;;;;;;;27.88;39.14;96912.09;5008518;28;20724;-70
2023/07/15 06:19:24;;;;;;;3.00;2.77;;;;;;;28.03;39.06;96903.22;5011093;28;20267;-68
2023/07/15 06:21:50;;;;;;;4.30;2.23;;;;;;;28.15;37.72;96898.34;5015293;28;20208;-69
2023/07/15 06:24:15;;;;;;;3.80;2.57;;;;;;;28.21;36.13;96893.75;4993494;28;20185;-70
2023/07/15 06:26:40;;;;;;;2.73;2.53;;;;;;;28.35;36.49;96891.28;5027622;28;20197;-70
2023/07/15 06:29:06;;;;;;;2.80;2.50;;;;;;;28.46;36.20;96890.16;5008451;28;20537;-70
2023/07/15 06:31:31;;;;;;;3.23;2.50;;;;;;;28.58;35.86;96880.94;4989573;28;20203;-70
2023/07/15 06:33:57;;;;;;;3.50;2.20;;;;;;;28.68;35.54;96888.97;5002449;28;20700;-70
2023/07/15 06:36:22;;;;;;;3.30;2.50;;;;;;;28.90;35.28;96877.81;5006382;28;20307;-70
2023/07/15 06:38:48;;;;;;;2.30;2.10;;;;;;;28.88;34.46;96887.28;5004364;28;20199;-70
2023/07/15 06:41:14;;;;;;;4.00;2.00;;;;;;;28.98;34.59;96878.34;5007681;28;20232;-69
2023/07/15 06:43:39;;;;;;;7.00;2.30;;;;;;;29.00;34.10;96884.22;5003396;28;21000;-71
2023/07/15 06:46:06;;;;;;;6.10;2.30;;;;;;;29.23;34.47;96886.25;5011832;28;20195;-70
2023/07/15 06:48:31;;;;;;;2.63;2.20;;;;;;;29.36;33.72;96879.41;5005564;28;20211;-70
2023/07/15 06:50:57;;;;;;;2.50;2.30;;;;;;;29.46;33.78;96878.53;5007936;28;20570;-69
2023/07/15 06:53:22;;;;;;;4.53;2.00;;;;;;;29.56;33.59;96883.84;5008408;28;20192;-70
2023/07/15 06:55:48;;;;;;;2.50;2.30;;;;;;;29.71;33.37;96884.78;5008126;28;20662;-69
2023/07/15 06:58:13;;;;;;;3.80;2.40;;;;;;;29.83;33.71;96887.09;5007011;28;20242;-69
2023/07/15 07:00:38;;;;;;;3.63;2.30;;;;;;;29.96;33.17;96883.75;5006731;28;20306;-69
2023/07/15 07:03:04;;;;;;;2.63;2.10;;;;;;;30.13;32.62;96886.00;5010736;28;20271;-70
2023/07/15 07:05:29;;;;;;;4.00;2.30;;;;;;;30.31;32.93;96886.34;5008710;28;20701;-71
2023/07/15 07:07:55;;;;;;;3.07;2.47;;;;;;;30.49;32.62;96879.38;5007617;28;20268;-69
2023/07/15 07:10:20;;;;;;;8.97;2.10;;;;;;;30.67;32.31;96877.81;5007529;28;20323;-69
2023/07/15 07:12:46;;;;;;;5.30;2.33;;;;;;;30.86;32.43;96883.22;5007772;28;20223;-69
2023/07/15 07:15:11;;;;;;;3.40;2.00;;;;;;;30.98;31.85;96874.69;5005962;28;20671;-69
2023/07/15 07:17:37;;;;;;;2.83;2.53;;;;;;;31.09;32.02;96859.91;5021862;28;20602;-70
2023/07/15 07:20:05;;;;;;;3.00;2.20;;;;;;;31.25;31.49;96865.13;5006331;28;20208;-70
2023/07/15 07:22:31;;;;;;;2.53;2.20;;;;;;;31.40;31.65;96867.53;5006570;28;20239;-71
2023/07/15 07:24:57;;;;;;;2.53;2.33;;;;;;;31.41;31.56;96874.56;5009034;28;20830;-70
2023/07/15 07:27:23;;;;;;;4.50;2.37;;;;;;;31.56;31.41;96880.84;5011800;28;20624;-70
2023/07/15 07:29:48;;;;;;;2.10;2.00;;;;;;;31.70;31.33;96887.13;5007290;28;20439;-69
2023/07/15 07:32:14;;;;;;;5.23;2.23;;;;;;;31.80;31.02;96885.31;5010831;28;20799;-69
2023/07/15 07:34:39;;;;;;;2.80;2.40;;;;;;;31.95;30.75;96893.19;5010059;28;20656;-70
2023/07/15 07:37:05;;;;;;;4.50;2.10;;;;;;;32.07;30.25;96883.75;5008010;28;20185;-69
2023/07/15 07:39:30;;;;;;;3.30;2.17;;;;;;;32.25;30.36;96891.03;5008220;28;20185;-69
2023/07/15 07:41:56;;;;;;;3.23;2.33;;;;;;;32.28;29.51;96895.03;5009513;28;20588;-69
2023/07/15 07:44:22;;;;;;;3.17;2.40;;;;;;;32.17;29.06;96892.50;5008119;28;20275;-70
2023/07/15 07:46:47;;;;;;;2.73;1.90;;;;;;;32.20;29.51;96893.78;5008588;28;20195;-69
2023/07/15 07:49:13;;;;;;;2.20;2.00;;;;;;;32.48;29.62;96888.41;5008343;28;20431;-70
2023/07/15 07:51:38;;;;;;;4.13;2.37;;;;;;;32.60;29.12;96891.38;5007668;28;20209;-71
2023/07/15 07:54:04;;;;;;;7.37;2.43;;;;;;;32.77;29.07;96881.78;5007741;28;20192;-70
2023/07/15 07:56:29;;;;;;;2.63;2.10;;;;;;;33.05;29.00;96884.47;5006097;28;20719;-70
2023/07/15 07:58:58;;;;;;;2.67;2.33;;;;;;;33.28;29.02;96881.75;5007608;28;20284;-70
2023/07/15 08:01:28;;;;;;;2.57;2.37;;;;;;;33.38;28.21;96882.34;5007226;28;20247;-70
2023/07/15 08:03:54;;;;;;;4.43;2.37;;;;;;;33.51;27.48;96880.69;5007458;28;20427;-70
2023/07/15 08:06:23;;;;;;;5.43;2.63;;;;;;;33.73;27.62;96881.75;5008069;28;20427;-69
2023/07/15 08:08:48;;;;;;;3.87;1.90;;;;;;;33.89;27.26;96882.19;5006766;28;20470;-71
2023/07/15 08:11:14;;;;;;;2.37;2.17;;;;;;;34.05;27.19;96879.84;5007270;28;20447;-70
2023/07/15 08:13:39;;;;;;;5.63;2.40;;;;;;;33.95;27.31;96877.41;5007789;28;20219;-70
2023/07/15 08:16:05;;;;;;;6.27;2.17;;;;;;;34.10;27.43;96877.00;5007395;28;20263;-70
2023/07/15 08:18:30;;;;;;;2.70;2.50;;;;;;;34.21;26.54;96873.97;5008512;28;20181;-70
2023/07/15 08:20:56;;;;;;;2.40;2.20;;;;;;;34.24;26.11;96886.97;5007437;28;20589;-70
2023/07/15 08:23:21;;;;;;;2.93;2.30;;;;;;;34.17;26.25;96881.97;5007832;28;20235;-70
2023/07/15 08:25:46;;;;;;;7.73;2.20;;;;;;;34.11;27.14;96892.19;5007303;28;20580;-68
2023/07/15 08:28:12;;;;;;;5.43;2.30;;;;;;;33.91;26.43;96887.28;5004774;28;20279;-69
2023/07/15 08:30:37;;;;;;;2.60;1.90;;;;;;;33.75;26.81;96887.69;5008831;28;20255;-69
2023/07/15 08:33:04;;;;;;;2.60;2.40;;;;;;;33.66;27.12;96890.34;5007451;28;20177;-70
2023/07/15 08:35:30;;;;;;;5.07;2.83;;;;;;;33.65;26.50;96882.50;5005918;28;20184;-70
2023/07/15 08:37:55;;;;;;;6.10;4.10;;;;;;;33.63;26.84;96876.59;5006234;28;20963;-70
2023/07/15 08:40:24;;;;;;;3.70;3.33;;;;;;;33.68;27.33;96881.88;5008930;28;20435;-69
2023/07/15 08:42:49;;;;;;;3.27;2.27;;;;;;;33.68;26.18;96879.16;5007393;28;20852;-69
2023/07/15 08:45:15;;;;;;;6.30;2.20;;;;;;;33.73;26.35;96881.75;5013162;28;20511;-70
2023/07/15 08:47:43;;;;;;;2.10;2.00;;;;;;;33.85;26.15;96879.25;5012749;28;20188;-70
2023/07/15 08:50:11;;;;;;;3.20;2.90;;;;;;;33.86;26.18;96874.63;5013641;28;20180;-68
2023/07/15 08:52:37;;;;;;;2.80;2.60;;;;;;;34.02;26.13;96872.34;5009353;28;20435;-69
2023/07/15 08:55:04;;;;;;;6.67;2.90;;;;;;;34.28;25.90;96877.03;5014054;28;20474;-72
2023/07/15 08:57:30;;;;;;;3.07;1.87;;;;;;;34.54;26.09;96877.16;5013021;28;20439;-71
2023/07/15 08:59:56;;;;;;;3.80;2.20;;;;;;;34.71;25.57;96875.56;5011959;28;20427;-70
2023/07/15 09:02:24;;;;;;;3.50;2.07;;;;;;;34.95;25.57;96869.69;5010152;28;20493;-71
2023/07/15 09:04:50;;;;;;;4.37;2.10;;;;;;;35.19;25.14;96858.31;5010819;28;20435;-71
2023/07/15 09:07:15;;;;;;;2.80;1.80;;;;;;;35.33;24.86;96852.69;5010533;28;20423;-71
2023/07/15 09:09:42;;;;;;;3.43;2.30;;;;;;;35.18;24.48;96862.16;5010116;28;20233;-71
2023/07/15 09:12:10;;;;;;;6.03;2.23;;;;;;;35.26;24.77;96852.38;5012252;28;20708;-70
2023/07/15 09:14:42;;;;;;;2.07;1.87;;;;;;;35.34;24.82;96848.84;5010873;28;20439;-71
2023/07/15 09:17:08;;;;;;;2.37;2.03;;;;;;;35.36;24.50;96852.03;5010384;28;20550;-71
2023/07/15 09:19:34;;;;;;;2.30;2.10;;;;;;;35.36;24.46;96852.03;5010813;28;20800;-70
2023/07/15 09:22:05;;;;;;;3.90;2.30;;;;;;;35.49;24.58;96844.03;5013386;28;20207;-69
2023/07/15 09:24:32;;;;;;;3.03;2.00;;;;;;;35.81;24.32;96847.28;5011988;28;20907;-71
2023/07/15 09:27:00;;;;;;;1.93;1.83;;;;;;;36.08;24.29;96843.34;5010486;28;20962;-70
2023/07/15 09:29:25;;;;;;;3.10;2.07;;;;;;;36.10;23.78;96843.84;5011277;28;20525;-70
2023/07/15 09:31:51;;;;;;;3.20;2.23;;;;;;;36.23;23.52;96846.66;5010372;28;20810;-72
2023/07/15 09:34:17;;;;;;;2.40;2.20;;;;;;;36.37;23.72;96839.00;5010130;28;20209;-70
2023/07/15 09:36:43;;;;;;;4.90;2.27;;;;;;;36.37;22.94;96840.94;5010305;28;20187;-70
2023/07/15 09:39:22;;;;;;;10.20;2.77;;;;;;;36.65;22.73;96849.44;5010359;28;20411;-70
2023/07/15 09:42:07;;;;;;;3.33;2.20;;;;;;;37.06;22.64;96847.06;5011074;28;20258;-68
2023/07/15 09:44:37;;;;;;;2.30;2.10;;;;;;;37.27;22.02;96862.63;4991763;28;20880;-70
2023/07/15 09:47:03;;;;;;;4.53;2.10;;;;;;;37.62;21.71;96851.34;4992122;28;20504;-69
2023/07/15 09:49:29;;;;;;;6.93;1.77;;;;;;;37.67;21.46;96859.34;5008845;28;20450;-69
2023/07/15 09:51:56;;;;;;;2.00;1.90;;;;;;;37.48;22.04;96835.28;5007461;28;20290;-68
2023/07/15 09:54:23;;;;;;;3.50;2.03;;;;;;;37.28;21.88;96853.28;5007433;28;20180;-68
2023/07/15 09:56:49;;;;;;;1.80;1.70;;;;;;;37.02;21.81;96851.59;5009639;28;20534;-69
2023/07/15 09:59:18;;;;;;;3.20;1.97;;;;;;;37.33;22.20;96856.63;5008947;28;20433;-67
2023/07/15 10:01:47;;;;;;;2.30;2.10;;;;;;;37.56;21.49;96841.78;5010525;28;20455;-69
2023/07/15 10:04:24;;;;;;;6.67;2.03;;;;;;;37.88;21.12;96839.34;5007709;28;20419;-68
2023/07/15 10:06:51;;;;;;;1.87;1.77;;;;;;;38.22;21.06;96834.56;5008403;28;20806;-69
2023/07/15 10:09:18;;;;;;;4.03;2.07;;;;;;;38.25;21.13;96831.13;5009379;28;20504;-69
2023/07/15 10:11:44;;;;;;;2.97;2.40;;;;;;;38.21;21.19;96827.47;5011438;28;20439;-70
2023/07/15 10:14:10;;;;;;;2.80;2.00;;;;;;;38.39;20.84;96822.59;5015675;28;20422;-69
2023/07/15 10:16:36;;;;;;;3.93;2.50;;;;;;;38.67;20.82;96828.13;5007504;28;20423;-70
2023/07/15 10:19:02;;;;;;;4.13;2.50;;;;;;;38.94;20.62;96825.75;5009767;28;20250;-69
2023/07/15 10:21:27;;;;;;;3.60;2.03;;;;;;;39.00;20.45;96835.34;5009324;28;21006;-69
2023/07/15 10:24:09;;;;;;;2.30;2.10;;;;;;;38.92;20.74;96832.75;5009180;28;20176;-69
2023/07/15 10:26:34;;;;;;;8.10;1.90;;;;;;;38.82;20.30;96823.06;5007552;28;20199;-69
2023/07/15 10:29:01;;;;;;;4.10;1.80;;;;;;;38.85;20.38;96817.72;5009055;28;20522;-69
2023/07/15 10:31:27;;;;;;;3.30;1.80;;;;;;;38.99;19.95;96822.00;5008227;28;20207;-69
2023/07/15 10:33:53;;;;;;;4.27;2.40;;;;;;;38.59;19.88;96828.25;5008295;28;20437;-70
2023/07/15 10:36:40;;;;;;;2.07;1.90;;;;;;;38.10;20.61;96822.47;5008721;28;20183;-70
2023/07/15 10:39:10;;;;;;;3.23;2.00;;;;;;;37.96;19.89;96811.09;5009676;28;20477;-70
2023/07/15 10:41:44;;;;;;;4.27;1.90;;;;;;;37.94;20.77;96813.38;5011161;28;20482;-69
2023/07/15 10:44:16;;;;;;;9.93;1.80;;;;;;;37.94;20.35;96813.38;5009229;28;20458;-69
2023/07/15 10:46:44;;;;;;;2.50;2.07;;;;;;;38.25;20.80;96806.53;5008738;28;20434;-68
2023/07/15 10:49:09;;;;;;;2.53;1.80;;;;;;;38.54;19.84;96802.72;5008478;28;20469;-68
2023/07/15 10:51:35;;;;;;;3.00;2.07;;;;;;;38.81;19.67;96805.06;5003524;28;20522;-69
2023/07/15 10:54:01;;;;;;;3.20;1.83;;;;;;;39.02;19.47;96805.66;5008616;28;20616;-69
2023/07/15 10:56:26;;;;;;;2.00;1.87;;;;;;;39.13;19.45;96802.41;5009506;28;20501;-70
2023/07/15 10:58:52;;;;;;;2.17;1.90;;;;;;;39.20;19.34;96804.56;5008617;28;20175;-69
2023/07/15 11:01:17;;;;;;;2.57;1.90;;;;;;;39.29;19.14;96797.81;5007672;28;20295;-68
2023/07/15 11:03:43;;;;;;;2.27;2.03;;;;;;;39.43;19.49;96802.06;5007785;28;20539;-69
2023/07/15 11:06:08;;;;;;;2.00;1.80;;;;;;;39.32;19.41;96802.56;5008268;28;20184;-69
2023/07/15 11:08:34;;;;;;;2.30;1.50;;;;;;;39.10;19.05;96790.22;5008580;28;20180;-69
2023/07/15 11:11:01;;;;;;;4.27;2.00;;;;;;;38.96;19.32;96790.63;5008284;28;20686;-69
2023/07/15 11:13:27;;;;;;;1.87;1.77;;;;;;;38.86;19.73;96785.66;5010500;28;20689;-69
2023/07/15 11:15:52;;;;;;;4.63;2.10;;;;;;;38.45;19.30;96793.06;5009346;28;20199;-69
2023/07/15 11:18:20;;;;;;;2.23;2.03;;;;;;;38.38;19.40;96783.50;5010535;28;20592;-69
2023/07/15 11:20:46;;;;;;;1.90;1.80;;;;;;;38.34;19.55;96782.56;5010240;28;20354;-69
2023/07/15 11:23:12;;;;;;;3.10;2.37;;;;;;;38.23;19.97;96775.97;5010363;28;20427;-69
2023/07/15 11:25:37;;;;;;;2.00;1.67;;;;;;;38.15;19.31;96780.44;5009932;28;20444;-70
2023/07/15 11:28:04;;;;;;;4.43;2.13;;;;;;;38.42;19.37;96772.66;5006797;28;20183;-69
2023/07/15 11:30:36;;;;;;;3.47;1.77;;;;;;;38.68;18.94;96774.19;5007975;28;20286;-68